Time;durP1;ratioP1;P1;durP2;ratioP2;P2;SDS_P1;SDS_P2;PMS_P1;PMS_P2;Temp;Humidity;BMP_temperature;BMP_pressure;BME280_temperature;BME280_humidity;BME280_pressure;Samples;Min_cycle;Max_cycle;Signal;HPM_P1;HPM_P2
2022/07/29 00:00:55;;;;;;;;;;;13.90;99.90;;;;;;6137339;23;20271;-77
2022/07/29 00:03:21;;;;;;;;;;;14.00;99.90;;;;;;6137421;23;19920;-77
2022/07/29 00:05:46;;;;;;;;;;;14.00;99.90;;;;;;6137163;23;19920;-76
2022/07/29 00:08:12;;;;;;;;;;;13.90;99.90;;;;;;6161834;23;19916;-77
2022/07/29 00:10:37;;;;;;;;;;;13.90;99.90;;;;;;6137109;23;20234;-76
2022/07/29 00:13:03;;;;;;;;;;;13.90;99.90;;;;;;6161917;23;19916;-77
2022/07/29 00:15:28;;;;;;;;;;;13.90;99.90;;;;;;6137079;23;19943;-77
2022/07/29 00:17:54;;;;;;;;;;;13.90;99.90;;;;;;6137099;23;19916;-77
2022/07/29 00:20:20;;;;;;;;;;;13.90;99.90;;;;;;6161165;23;19922;-77
2022/07/29 00:22:45;;;;;;;;;;;13.90;99.90;;;;;;6136741;23;19916;-77
2022/07/29 00:25:12;;;;;;;;;;;13.90;99.90;;;;;;6136491;23;19916;-77
2022/07/29 00:27:37;;;;;;;;;;;13.90;99.90;;;;;;6136956;23;19924;-77
2022/07/29 00:30:04;;;;;;;;;;;13.90;99.90;;;;;;6136582;23;20239;-77
2022/07/29 00:32:29;;;;;;;;;;;14.00;99.90;;;;;;6161145;23;19920;-78
2022/07/29 00:37:42;;;;;;;;;;;14.00;99.90;;;;;;6161033;23;19975;-76
2022/07/29 00:40:08;;;;;;;;;;;14.00;99.90;;;;;;6161213;23;19916;-77
2022/07/29 00:42:43;;;;;;;;;;;14.00;99.90;;;;;;6161512;23;19987;-77
2022/07/29 00:45:09;;;;;;;;;;;14.00;99.90;;;;;;6137283;23;19916;-77
2022/07/29 00:47:34;;;;;;;;;;;14.00;99.90;;;;;;6136901;23;19974;-78
2022/07/29 00:50:00;;;;;;;;;;;14.10;99.90;;;;;;6161109;23;19916;-79
2022/07/29 00:52:26;;;;;;;;;;;14.00;99.90;;;;;;6136737;23;19916;-77
2022/07/29 00:54:52;;;;;;;;;;;14.10;99.90;;;;;;6161316;23;19923;-78
2022/07/29 00:57:17;;;;;;;;;;;14.10;99.90;;;;;;6136604;23;19951;-77
2022/07/29 00:59:43;;;;;;;;;;;14.20;99.90;;;;;;6161159;23;19916;-77
2022/07/29 01:02:09;;;;;;;;;;;14.20;99.90;;;;;;6136519;23;19962;-78
2022/07/29 01:04:34;;;;;;;;;;;14.20;99.90;;;;;;6136734;23;20361;-78
2022/07/29 01:07:03;;;;;;;;;;;14.20;99.90;;;;;;6161214;23;19963;-77
2022/07/29 01:09:31;;;;;;;;;;;14.20;99.90;;;;;;6136415;23;19920;-77
2022/07/29 01:11:57;;;;;;;;;;;14.20;99.90;;;;;;6136547;23;19955;-77
2022/07/29 01:14:23;;;;;;;;;;;14.30;99.90;;;;;;6161085;23;19916;-77
2022/07/29 01:16:51;;;;;;;;;;;14.30;99.90;;;;;;6161030;23;20441;-77
2022/07/29 01:19:33;;;;;;;;;;;14.30;99.90;;;;;;6136456;23;19916;-78
2022/07/29 01:22:05;;;;;;;;;;;14.30;99.90;;;;;;6136554;23;19916;-77
2022/07/29 01:24:58;;;;;;;;;;;14.30;99.90;;;;;;6160901;23;19991;-77
2022/07/29 01:27:56;;;;;;;;;;;14.30;99.90;;;;;;6161011;23;19944;-76
2022/07/29 01:30:22;;;;;;;;;;;14.40;99.90;;;;;;6057123;23;19923;-76
2022/07/29 01:32:49;;;;;;;;;;;14.30;99.90;;;;;;6160882;23;20319;-77
2022/07/29 01:35:36;;;;;;;;;;;14.30;99.90;;;;;;6160887;23;20382;-76
2022/07/29 01:38:13;;;;;;;;;;;14.40;99.90;;;;;;6136183;23;19916;-77
2022/07/29 01:40:47;;;;;;;;;;;14.40;99.90;;;;;;6160705;23;19916;-77
2022/07/29 01:43:15;;;;;;;;;;;14.40;99.90;;;;;;6136313;23;19916;-77
2022/07/29 01:45:44;;;;;;;;;;;14.30;99.90;;;;;;6160821;23;19956;-77
2022/07/29 01:48:19;;;;;;;;;;;14.30;99.90;;;;;;6159984;23;19963;-77
2022/07/29 01:50:45;;;;;;;;;;;14.30;99.90;;;;;;6136068;23;19939;-77
2022/07/29 01:53:12;;;;;;;;;;;14.30;99.90;;;;;;6160827;23;19983;-77
2022/07/29 01:55:44;;;;;;;;;;;14.30;99.90;;;;;;6160374;23;19916;-77
2022/07/29 01:58:10;;;;;;;;;;;14.30;99.90;;;;;;6160198;23;19999;-77
2022/07/29 02:00:37;;;;;;;;;;;14.20;99.90;;;;;;6136025;23;19950;-77
2022/07/29 02:03:05;;;;;;;;;;;14.30;99.90;;;;;;6136075;23;20353;-76
2022/07/29 02:05:32;;;;;;;;;;;14.30;99.90;;;;;;6160650;23;19916;-77
2022/07/29 02:07:58;;;;;;;;;;;14.30;99.90;;;;;;6160593;23;19986;-78
2022/07/29 02:10:27;;;;;;;;;;;14.30;99.90;;;;;;6135532;23;19920;-77
2022/07/29 02:12:54;;;;;;;;;;;14.30;99.90;;;;;;6160293;23;19912;-77
2022/07/29 02:15:21;;;;;;;;;;;14.30;99.90;;;;;;6160245;23;19912;-77
2022/07/29 02:17:51;;;;;;;;;;;14.30;99.90;;;;;;6135660;23;20291;-78
2022/07/29 02:20:16;;;;;;;;;;;14.30;99.90;;;;;;6160361;23;19958;-77
2022/07/29 02:22:44;;;;;;;;;;;14.30;99.90;;;;;;6136024;23;19916;-77
2022/07/29 02:25:10;;;;;;;;;;;14.30;99.90;;;;;;6135376;23;20279;-78
2022/07/29 02:27:37;;;;;;;;;;;14.30;99.90;;;;;;6160678;23;19924;-76
2022/07/29 02:30:03;;;;;;;;;;;14.40;99.90;;;;;;6160160;23;20023;-78
2022/07/29 02:32:30;;;;;;;;;;;14.40;99.90;;;;;;6135365;23;19916;-77
2022/07/29 02:34:56;;;;;;;;;;;14.40;99.90;;;;;;6135909;23;20275;-77
2022/07/29 02:37:23;;;;;;;;;;;14.40;99.90;;;;;;6135683;23;19995;-77
2022/07/29 02:39:51;;;;;;;;;;;14.40;99.90;;;;;;6160188;23;19917;-76
2022/07/29 02:42:18;;;;;;;;;;;14.40;99.90;;;;;;6160293;23;19917;-77
2022/07/29 02:44:43;;;;;;;;;;;14.40;99.90;;;;;;6135925;23;19916;-76
2022/07/29 02:47:15;;;;;;;;;;;14.50;99.90;;;;;;6135661;23;19920;-77
2022/07/29 02:49:45;;;;;;;;;;;14.50;99.90;;;;;;6135938;23;19916;-77
2022/07/29 02:52:15;;;;;;;;;;;14.50;99.90;;;;;;6160410;23;20275;-77
2022/07/29 02:54:44;;;;;;;;;;;14.50;99.90;;;;;;6159912;23;19959;-78
2022/07/29 02:57:20;;;;;;;;;;;14.50;99.90;;;;;;6135325;23;19916;-76
2022/07/29 02:59:47;;;;;;;;;;;14.50;99.90;;;;;;6160082;23;19923;-77
2022/07/29 03:02:14;;;;;;;;;;;14.50;99.90;;;;;;6159669;23;19998;-76
2022/07/29 03:04:40;;;;;;;;;;;14.40;99.90;;;;;;6135315;23;19916;-77
2022/07/29 03:07:06;;;;;;;;;;;14.50;99.90;;;;;;6160172;23;19912;-76
2022/07/29 03:09:31;;;;;;;;;;;14.50;99.90;;;;;;6110715;23;20326;-77
2022/07/29 03:11:57;;;;;;;;;;;14.40;99.90;;;;;;6159860;23;19916;-76
2022/07/29 03:14:23;;;;;;;;;;;14.40;99.90;;;;;;6160249;23;19916;-76
2022/07/29 03:16:49;;;;;;;;;;;14.40;99.90;;;;;;6135404;23;19916;-76
2022/07/29 03:19:14;;;;;;;;;;;14.40;99.90;;;;;;6135253;23;19923;-76
2022/07/29 03:21:40;;;;;;;;;;;14.40;99.90;;;;;;6160399;23;19916;-78
2022/07/29 03:24:06;;;;;;;;;;;14.40;99.90;;;;;;6135181;23;20242;-77
2022/07/29 03:26:31;;;;;;;;;;;14.40;99.90;;;;;;6135667;23;19922;-77
2022/07/29 03:28:57;;;;;;;;;;;14.30;99.90;;;;;;6159544;23;19951;-77
2022/07/29 03:31:22;;;;;;;;;;;14.30;99.90;;;;;;6160171;23;19923;-76
2022/07/29 03:33:48;;;;;;;;;;;14.40;99.90;;;;;;6160119;23;19923;-76
2022/07/29 03:36:14;;;;;;;;;;;14.30;99.90;;;;;;6135479;23;19916;-77
2022/07/29 03:38:41;;;;;;;;;;;14.40;99.90;;;;;;6135330;23;19920;-76
2022/07/29 03:41:09;;;;;;;;;;;14.30;99.90;;;;;;6135375;23;19923;-76
2022/07/29 03:43:35;;;;;;;;;;;14.30;99.90;;;;;;6160296;23;19916;-76
2022/07/29 03:46:02;;;;;;;;;;;14.30;99.90;;;;;;6135318;23;19916;-76
2022/07/29 03:48:30;;;;;;;;;;;14.20;99.90;;;;;;6159868;23;20342;-75
2022/07/29 03:50:56;;;;;;;;;;;14.20;99.90;;;;;;6135124;23;19916;-76
2022/07/29 03:53:22;;;;;;;;;;;14.20;99.90;;;;;;6159965;23;19955;-77
2022/07/29 03:55:50;;;;;;;;;;;14.30;99.90;;;;;;6160094;23;20242;-76
2022/07/29 03:58:18;;;;;;;;;;;14.20;99.90;;;;;;6159836;23;19917;-76
2022/07/29 04:00:44;;;;;;;;;;;14.20;99.90;;;;;;6159817;23;20007;-76
2022/07/29 04:03:10;;;;;;;;;;;14.20;99.90;;;;;;6135354;23;20337;-76
2022/07/29 04:05:35;;;;;;;;;;;14.20;99.90;;;;;;6135489;23;19955;-77
2022/07/29 04:08:01;;;;;;;;;;;14.20;99.90;;;;;;6159968;23;19966;-76
2022/07/29 04:10:27;;;;;;;;;;;14.30;99.90;;;;;;6135154;23;20320;-76
2022/07/29 04:12:52;;;;;;;;;;;14.20;99.90;;;;;;6136742;23;19920;-76
2022/07/29 04:15:18;;;;;;;;;;;14.30;99.90;;;;;;6161722;23;19920;-76
2022/07/29 04:17:44;;;;;;;;;;;14.30;99.90;;;;;;6161627;23;19916;-76
2022/07/29 04:20:12;;;;;;;;;;;14.30;99.90;;;;;;6161513;23;19924;-77
2022/07/29 04:22:39;;;;;;;;;;;14.40;99.90;;;;;;6161979;23;20347;-76
2022/07/29 04:25:04;;;;;;;;;;;14.40;99.90;;;;;;6161208;23;19923;-76
2022/07/29 04:27:30;;;;;;;;;;;14.40;99.90;;;;;;6137082;23;19916;-76
2022/07/29 04:29:56;;;;;;;;;;;14.50;99.90;;;;;;6136986;23;19916;-78
2022/07/29 04:32:21;;;;;;;;;;;14.50;99.90;;;;;;6161172;23;19916;-77
2022/07/29 04:34:47;;;;;;;;;;;14.60;99.90;;;;;;6161818;23;19920;-76
2022/07/29 04:37:12;;;;;;;;;;;14.60;99.90;;;;;;6136830;23;19947;-77
2022/07/29 04:39:38;;;;;;;;;;;14.60;99.90;;;;;;6161073;23;20255;-77
2022/07/29 04:42:03;;;;;;;;;;;14.60;99.90;;;;;;6161511;23;19924;-76
2022/07/29 04:44:29;;;;;;;;;;;14.60;99.90;;;;;;6136819;23;19920;-77
2022/07/29 04:46:55;;;;;;;;;;;14.70;99.90;;;;;;6161272;23;20276;-75
2022/07/29 04:49:20;;;;;;;;;;;14.60;99.90;;;;;;6136766;23;19916;-75
2022/07/29 04:51:46;;;;;;;;;;;14.70;99.90;;;;;;6161400;23;19916;-76
2022/07/29 04:54:12;;;;;;;;;;;14.70;99.90;;;;;;6161349;23;19916;-76
2022/07/29 04:56:37;;;;;;;;;;;14.70;99.90;;;;;;6136829;23;19931;-77
2022/07/29 04:59:03;;;;;;;;;;;14.80;99.90;;;;;;6161159;23;20332;-76
2022/07/29 05:01:29;;;;;;;;;;;14.80;99.90;;;;;;6136719;23;19916;-77
2022/07/29 05:03:54;;;;;;;;;;;14.80;99.90;;;;;;6136660;23;20323;-77
2022/07/29 05:06:20;;;;;;;;;;;14.80;99.90;;;;;;6161003;23;19916;-76
2022/07/29 05:08:45;;;;;;;;;;;14.80;99.90;;;;;;6136553;23;19916;-78
2022/07/29 05:11:11;;;;;;;;;;;14.80;99.90;;;;;;6136422;23;19959;-77
2022/07/29 05:13:37;;;;;;;;;;;14.90;99.90;;;;;;6161478;23;19987;-78
2022/07/29 05:16:02;;;;;;;;;;;14.90;99.90;;;;;;6161245;23;19923;-76
2022/07/29 05:18:28;;;;;;;;;;;14.90;99.90;;;;;;6136359;23;20311;-77
2022/07/29 05:20:53;;;;;;;;;;;14.90;99.90;;;;;;6160946;23;19923;-77
2022/07/29 05:23:19;;;;;;;;;;;14.90;99.90;;;;;;6136587;23;19924;-76
2022/07/29 05:25:46;;;;;;;;;;;15.00;99.90;;;;;;6136235;23;20312;-76
2022/07/29 05:28:11;;;;;;;;;;;15.10;99.90;;;;;;6136249;23;20330;-75
2022/07/29 05:30:37;;;;;;;;;;;15.20;99.90;;;;;;6136362;23;19923;-76
2022/07/29 05:33:03;;;;;;;;;;;15.20;99.90;;;;;;6136355;23;20228;-76
2022/07/29 05:35:28;;;;;;;;;;;15.20;99.90;;;;;;6160772;23;19916;-76
2022/07/29 05:37:54;;;;;;;;;;;15.30;99.90;;;;;;6161139;23;19958;-76
2022/07/29 05:40:20;;;;;;;;;;;15.40;99.90;;;;;;6135756;23;20331;-76
2022/07/29 05:42:45;;;;;;;;;;;15.40;99.90;;;;;;6136086;23;19919;-76
2022/07/29 05:45:11;;;;;;;;;;;15.50;99.90;;;;;;6136270;23;19912;-77
2022/07/29 05:47:36;;;;;;;;;;;15.60;99.90;;;;;;6160838;23;19919;-76
2022/07/29 05:50:03;;;;;;;;;;;15.60;99.90;;;;;;6160193;23;19920;-77
2022/07/29 05:52:29;;;;;;;;;;;15.70;99.90;;;;;;6160784;23;19920;-77
2022/07/29 05:54:56;;;;;;;;;;;15.70;99.90;;;;;;6160541;23;20319;-76
2022/07/29 05:57:50;;;;;;;;;;;15.70;99.90;;;;;;6160361;23;19923;-77
2022/07/29 06:00:46;;;;;;;;;;;;;;;;;;;;;
2022/07/29 06:10:41;;;;;;;;;;;16.10;99.90;;;;;;5991682;23;20326;-85
2022/07/29 06:14:06;;;;;;;;;;;;;;;;;;;;;
2022/07/29 06:17:11;;;;;;;;;;;16.60;99.90;;;;;;5952586;24;19942;-84
2022/07/29 06:19:42;;;;;;;;;;;16.80;99.90;;;;;;6008214;23;19978;-85
2022/07/29 06:22:42;;;;;;;;;;;17.10;99.90;;;;;;5967663;23;19925;-83
2022/07/29 06:28:40;;;;;;;;;;;17.60;99.90;;;;;;6009740;23;19919;-76
2022/07/29 06:31:31;;;;;;;;;;;17.80;99.90;;;;;;5990502;23;19917;-79
2022/07/29 06:34:06;;;;;;;;;;;18.00;99.90;;;;;;6013174;23;19917;-76
2022/07/29 06:36:36;;;;;;;;;;;18.10;99.90;;;;;;6014247;23;19922;-77
2022/07/29 06:39:31;;;;;;;;;;;18.00;99.90;;;;;;6013555;23;19924;-80
2022/07/29 06:41:59;;;;;;;;;;;18.10;99.90;;;;;;6024892;23;19973;-73
2022/07/29 06:44:28;;;;;;;;;;;18.00;99.90;;;;;;6047179;23;19913;-75
2022/07/29 06:50:51;;;;;;;;;;;17.90;99.90;;;;;;6090779;23;19913;-76
2022/07/29 06:53:51;;;;;;;;;;;17.90;99.90;;;;;;6135332;23;19923;-77
2022/07/29 06:59:28;;;;;;;;;;;18.00;99.90;;;;;;6121795;23;19932;-77
2022/07/29 07:02:00;;;;;;;;;;;18.10;99.90;;;;;;6098765;23;20339;-77
2022/07/29 07:04:54;;;;;;;;;;;18.20;99.90;;;;;;6099836;23;19917;-80
2022/07/29 07:07:23;;;;;;;;;;;18.20;99.90;;;;;;6096624;23;19917;-76
2022/07/29 07:10:35;;;;;;;;;;;18.20;99.90;;;;;;6098987;23;20344;-77
2022/07/29 07:16:37;;;;;;;;;;;18.40;99.90;;;;;;6073598;23;19956;-75
2022/07/29 07:19:10;;;;;;;;;;;18.50;99.90;;;;;;6100094;23;20003;-74
2022/07/29 07:21:51;;;;;;;;;;;18.60;99.90;;;;;;6075209;23;19944;-75
2022/07/29 07:24:42;;;;;;;;;;;18.60;99.90;;;;;;6067586;23;19923;-73
2022/07/29 07:30:21;;;;;;;;;;;18.60;99.90;;;;;;6083716;23;19920;-78
2022/07/29 07:32:49;;;;;;;;;;;18.60;99.90;;;;;;6106249;23;20378;-72
2022/07/29 07:35:28;;;;;;;;;;;18.70;99.90;;;;;;6105791;23;19955;-77
2022/07/29 07:38:43;;;;;;;;;;;18.60;99.90;;;;;;6105297;23;20002;-76
2022/07/29 08:19:52;;;;;;;;;;;18.20;99.90;;;;;;6176599;23;19989;31
2022/07/29 08:25:42;;;;;;;;;;;18.40;99.90;;;;;;6080032;23;19952;-72
2022/07/29 08:28:07;;;;;;;;;;;18.80;99.90;;;;;;6072322;23;20048;-72
2022/07/29 08:30:43;;;;;;;;;;;18.90;99.90;;;;;;6048122;23;19965;-72
2022/07/29 08:39:59;;;;;;;;;;;19.30;99.90;;;;;;5984825;23;19970;-75
2022/07/29 09:37:22;;;;;;;;;;;19.70;99.90;;;;;;6182833;23;19923;-72
2022/07/29 10:02:17;;;;;;;;;;;20.10;99.90;;;;;;6155216;23;19918;-79
2022/07/29 10:53:05;;;;;;;;;;;19.50;99.90;;;;;;6179998;23;19919;-72
2022/07/29 10:55:34;;;;;;;;;;;19.50;99.90;;;;;;6133601;23;19985;-78
2022/07/29 11:12:21;;;;;;;;;;;19.70;99.90;;;;;;6120577;23;19912;-74
2022/07/29 11:28:21;;;;;;;;;;;19.90;99.90;;;;;;6082017;23;19998;-71
2022/07/29 11:30:47;;;;;;;;;;;20.00;99.90;;;;;;6162949;23;19915;-71
2022/07/29 11:33:29;;;;;;;;;;;20.00;99.90;;;;;;6138449;23;19912;-73
2022/07/29 11:43:09;;;;;;;;;;;20.00;99.90;;;;;;6098110;23;20331;-74
2022/07/29 11:45:48;;;;;;;;;;;20.00;99.90;;;;;;6051906;23;19914;-78
2022/07/29 11:48:17;;;;;;;;;;;20.00;99.90;;;;;;6050278;23;19957;-77
2022/07/29 11:50:46;;;;;;;;;;;20.00;99.90;;;;;;6121896;23;19987;-78
2022/07/29 11:53:15;;;;;;;;;;;20.10;99.90;;;;;;6137764;23;20334;-77
2022/07/29 11:55:41;;;;;;;;;;;20.10;99.90;;;;;;6162489;23;19912;-79
2022/07/29 11:58:10;;;;;;;;;;;20.20;99.90;;;;;;6162729;23;19916;-78
2022/07/29 12:00:42;;;;;;;;;;;20.30;99.90;;;;;;6138594;23;19912;-78
2022/07/29 12:03:31;;;;;;;;;;;20.40;99.90;;;;;;6139989;23;20239;-78
2022/07/29 12:05:57;;;;;;;;;;;20.40;99.90;;;;;;6137944;23;20323;-78
2022/07/29 12:08:25;;;;;;;;;;;20.30;99.90;;;;;;6114396;23;19919;-79
2022/07/29 12:10:54;;;;;;;;;;;20.40;99.90;;;;;;6139879;23;20354;-78
2022/07/29 12:13:24;;;;;;;;;;;20.40;99.90;;;;;;6138020;23;19963;-78
2022/07/29 12:15:53;;;;;;;;;;;20.50;99.90;;;;;;6138378;23;19958;-77
2022/07/29 12:18:20;;;;;;;;;;;20.60;99.90;;;;;;6162926;23;19916;-77
2022/07/29 12:21:02;;;;;;;;;;;20.50;99.90;;;;;;6162566;23;19913;-77
2022/07/29 12:23:27;;;;;;;;;;;20.60;99.90;;;;;;6163173;23;20284;-79
2022/07/29 12:25:53;;;;;;;;;;;20.60;99.90;;;;;;6138301;23;19943;-77
2022/07/29 12:28:21;;;;;;;;;;;20.80;99.90;;;;;;6139087;23;19926;-78
2022/07/29 12:30:48;;;;;;;;;;;21.00;99.90;;;;;;6162875;23;19912;-79
2022/07/29 12:33:31;;;;;;;;;;;21.10;99.90;;;;;;6136780;23;19912;-73
2022/07/29 12:35:58;;;;;;;;;;;21.10;99.90;;;;;;6134664;23;20295;-77
2022/07/29 12:38:24;;;;;;;;;;;21.30;99.90;;;;;;6159301;23;19917;-76
2022/07/29 12:54:27;;;;;;;;;;;21.40;99.90;;;;;;6123789;23;19923;-79
2022/07/29 13:00:40;;;;;;;;;;;21.90;99.90;;;;;;6124046;23;19919;-82
2022/07/29 13:06:44;;;;;;;;;;;21.90;99.90;;;;;;6124018;23;19912;-79
2022/07/29 13:13:10;;;;;;;;;;;22.20;99.50;;;;;;6036595;23;19922;-76
2022/07/29 13:15:42;;;;;;;;;;;22.40;99.10;;;;;;5992193;23;19961;-77
2022/07/29 13:18:26;;;;;;;;;;;22.20;98.90;;;;;;6117691;23;19916;-77
2022/07/29 13:20:55;;;;;;;;;;;22.30;98.80;;;;;;6135750;23;19912;-77
2022/07/29 13:23:26;;;;;;;;;;;22.50;99.20;;;;;;6136913;23;19991;-77
2022/07/29 13:26:16;;;;;;;;;;;22.20;98.90;;;;;;6164834;23;19967;-78
2022/07/29 13:29:00;;;;;;;;;;;22.40;98.90;;;;;;6136050;23;19912;-78
2022/07/29 13:31:35;;;;;;;;;;;22.40;99.50;;;;;;6135543;23;19912;-78
2022/07/29 13:34:00;;;;;;;;;;;22.90;98.50;;;;;;6142078;23;20224;-77
2022/07/29 13:36:26;;;;;;;;;;;22.70;98.40;;;;;;6186875;23;19919;-76
2022/07/29 13:39:05;;;;;;;;;;;;;;;;;;;;;
2022/07/29 13:41:43;;;;;;;;;;;22.50;98.90;;;;;;6160731;23;19934;-77
2022/07/29 13:44:08;;;;;;;;;;;22.60;98.40;;;;;;6135230;23;20375;-76
2022/07/29 13:46:35;;;;;;;;;;;22.20;98.60;;;;;;6136317;23;19980;-77
2022/07/29 13:49:00;;;;;;;;;;;22.40;98.70;;;;;;6160763;23;19983;-79
2022/07/29 14:09:19;;;;;;;;;;;23.70;95.00;;;;;;5981572;24;19919;-73
2022/07/29 14:12:27;;;;;;;;;;;;;;;;;;;;;
2022/07/29 14:15:38;;;;;;;;;;;24.30;94.50;;;;;;5937627;23;19920;-74
2022/07/29 14:19:00;;;;;;;;;;;24.60;93.90;;;;;;6018582;23;19925;-74
2022/07/29 14:22:19;;;;;;;;;;;24.70;92.30;;;;;;6008379;23;19925;-75
2022/07/29 14:25:54;;;;;;;;;;;;;;;;;;;;;
2022/07/29 14:29:11;;;;;;;;;;;;;;;;;;;;;
2022/07/29 14:39:18;;;;;;;;;;;24.50;90.80;;;;;;5893914;24;20359;-73
2022/07/29 14:45:25;;;;;;;;;;;24.30;92.60;;;;;;5953739;24;20341;-73
2022/07/29 14:47:53;;;;;;;;;;;24.20;92.30;;;;;;5976035;24;19919;-73
2022/07/29 14:50:27;;;;;;;;;;;24.30;92.20;;;;;;5960199;23;19914;-73
2022/07/29 14:53:04;;;;;;;;;;;24.30;92.30;;;;;;6107538;23;19967;-74
2022/07/29 14:55:43;;;;;;;;;;;24.40;93.20;;;;;;6104216;23;19917;-73
2022/07/29 14:58:11;;;;;;;;;;;25.00;92.50;;;;;;6081467;23;19920;-73
2022/07/29 15:00:56;;;;;;;;;;;25.00;89.60;;;;;;6104218;23;20350;-74
2022/07/29 15:03:53;;;;;;;;;;;;;;;;;;;;;
2022/07/29 15:06:25;;;;;;;;;;;25.50;88.20;;;;;;6142914;23;20319;-74
2022/07/29 15:08:56;;;;;;;;;;;25.90;85.80;;;;;;6134201;23;19912;-74
2022/07/29 15:11:22;;;;;;;;;;;25.50;85.70;;;;;;6134869;23;19915;-74
2022/07/29 15:14:02;;;;;;;;;;;25.60;83.00;;;;;;6159029;23;19919;-75
2022/07/29 15:16:31;;;;;;;;;;;25.80;82.50;;;;;;6160218;23;19987;-74
2022/07/29 15:19:00;;;;;;;;;;;25.70;82.80;;;;;;6160009;23;19939;-74
2022/07/29 15:21:25;;;;;;;;;;;25.70;82.10;;;;;;6159599;23;19912;-74
2022/07/29 15:23:51;;;;;;;;;;;25.80;81.90;;;;;;6159816;23;19938;-74
2022/07/29 15:26:28;;;;;;;;;;;25.50;83.90;;;;;;6135356;23;20349;-75
2022/07/29 15:28:59;;;;;;;;;;;25.60;84.00;;;;;;6160164;23;19916;-75
2022/07/29 15:31:25;;;;;;;;;;;25.10;82.80;;;;;;6186128;23;19963;-74
2022/07/29 15:33:51;;;;;;;;;;;24.90;82.70;;;;;;6135292;23;19916;-73
2022/07/29 15:39:49;;;;;;;;;;;24.70;84.60;;;;;;6185723;23;19998;-81
2022/07/29 15:42:14;;;;;;;;;;;24.70;85.10;;;;;;6135289;23;19916;-78
2022/07/29 15:44:40;;;;;;;;;;;24.70;84.90;;;;;;6134994;23;20323;-76
2022/07/29 15:47:06;;;;;;;;;;;24.80;85.70;;;;;;6135194;23;19912;-77
2022/07/29 15:49:32;;;;;;;;;;;25.10;86.10;;;;;;6134807;23;19940;-81
2022/07/29 15:52:02;;;;;;;;;;;25.20;86.00;;;;;;6135159;23;19938;-78
2022/07/29 15:54:28;;;;;;;;;;;25.30;85.10;;;;;;6134762;23;19951;-77
2022/07/29 16:03:49;;;;;;;;;;;26.80;84.60;;;;;;6167518;23;19974;-76
2022/07/29 16:06:15;;;;;;;;;;;27.30;90.10;;;;;;6164328;23;19919;-76
2022/07/29 16:08:41;;;;;;;;;;;27.50;87.10;;;;;;6165656;23;19922;-80
2022/07/29 16:11:06;;;;;;;;;;;27.80;89.00;;;;;;6166064;23;19978;-76
2022/07/29 16:13:32;;;;;;;;;;;28.10;85.10;;;;;;6165678;23;19911;-74
2022/07/29 16:15:58;;;;;;;;;;;28.40;88.30;;;;;;6166286;23;19919;-74
2022/07/29 17:35:02;;;;;;;;;;;21.90;99.90;;;;;;6179078;23;19920;31
2022/07/29 17:37:33;;;;;;;;;;;21.90;99.90;;;;;;6101781;23;19913;-77
2022/07/29 18:04:19;;;;;;;;;;;21.20;99.90;;;;;;6197180;22;19912;-75
2022/07/29 18:06:59;;;;;;;;;;;21.20;99.90;;;;;;6159171;23;19961;-76
2022/07/29 18:09:29;;;;;;;;;;;21.10;99.90;;;;;;6140433;23;19907;-76
2022/07/29 18:12:02;;;;;;;;;;;21.10;99.90;;;;;;6129295;23;19946;-77
2022/07/29 18:14:28;;;;;;;;;;;21.00;99.90;;;;;;6105050;23;19908;-77
2022/07/29 18:16:57;;;;;;;;;;;20.90;99.90;;;;;;6105180;23;19982;-76
2022/07/29 18:19:28;;;;;;;;;;;20.90;99.90;;;;;;6105678;23;20303;-76
2022/07/29 18:22:04;;;;;;;;;;;20.90;99.90;;;;;;6150895;23;20001;-76
2022/07/29 18:27:31;;;;;;;;;;;20.80;99.90;;;;;;6132740;23;19915;-75
2022/07/29 18:30:18;;;;;;;;;;;20.80;99.90;;;;;;6154265;23;19909;-76
2022/07/29 18:32:43;;;;;;;;;;;20.80;99.90;;;;;;6105425;23;19916;-77
2022/07/29 18:35:15;;;;;;;;;;;20.80;99.90;;;;;;6154080;23;19932;-81
2022/07/29 18:37:52;;;;;;;;;;;20.80;99.90;;;;;;6105952;23;19908;-80
2022/07/29 18:40:26;;;;;;;;;;;20.70;99.90;;;;;;6152930;23;19947;-76
2022/07/29 18:43:01;;;;;;;;;;;20.70;99.90;;;;;;6134420;23;19908;-81
2022/07/29 18:45:47;;;;;;;;;;;20.70;99.90;;;;;;6165907;23;19908;-83
2022/07/29 18:48:24;;;;;;;;;;;20.60;99.90;;;;;;6164928;23;19954;-82
2022/07/29 18:51:06;;;;;;;;;;;20.60;99.90;;;;;;6190118;23;19908;-82
2022/07/29 18:53:56;;;;;;;;;;;20.50;99.90;;;;;;6116925;23;20282;-82
2022/07/29 18:56:46;;;;;;;;;;;20.50;99.90;;;;;;6165337;23;19915;-81
2022/07/29 19:03:02;;;;;;;;;;;20.30;99.90;;;;;;6147139;23;19912;-83
2022/07/29 19:09:07;;;;;;;;;;;20.00;99.90;;;;;;6157954;23;19908;-80
2022/07/29 19:12:06;;;;;;;;;;;;;;;;;;;;;
2022/07/29 19:14:38;;;;;;;;;;;19.90;99.90;;;;;;6168103;23;20310;-81
2022/07/29 19:17:48;;;;;;;;;;;19.80;99.90;;;;;;6169379;23;19908;-83
2022/07/29 19:20:38;;;;;;;;;;;19.60;99.90;;;;;;6164046;23;19966;-81
2022/07/29 19:23:18;;;;;;;;;;;19.50;99.90;;;;;;6189870;23;19919;-81
2022/07/29 19:26:02;;;;;;;;;;;19.50;99.90;;;;;;6157783;23;19908;-81
2022/07/29 19:28:39;;;;;;;;;;;19.30;99.90;;;;;;6131735;23;19943;-84
2022/07/29 19:31:07;;;;;;;;;;;19.30;99.90;;;;;;6159913;23;20234;-81
2022/07/29 19:33:41;;;;;;;;;;;19.20;99.90;;;;;;6136069;23;19983;-84
2022/07/29 19:36:49;;;;;;;;;;;19.10;99.90;;;;;;6182109;23;19925;-84
2022/07/29 19:39:38;;;;;;;;;;;19.10;99.90;;;;;;6162277;23;20278;-81
2022/07/29 19:42:09;;;;;;;;;;;19.00;99.90;;;;;;6160606;23;20247;-81
2022/07/29 19:44:53;;;;;;;;;;;18.90;99.90;;;;;;6135987;23;19978;-81
2022/07/29 19:47:27;;;;;;;;;;;18.80;99.90;;;;;;6137024;23;19908;-82
2022/07/29 19:50:01;;;;;;;;;;;18.70;99.90;;;;;;6113197;23;19912;-85
2022/07/29 19:52:35;;;;;;;;;;;18.70;99.90;;;;;;6072987;23;19909;-81
2022/07/29 19:55:20;;;;;;;;;;;18.60;99.90;;;;;;6049610;23;19983;-83
2022/07/29 19:57:57;;;;;;;;;;;18.50;99.90;;;;;;6078370;23;19909;-81
2022/07/29 20:00:34;;;;;;;;;;;18.40;99.90;;;;;;6126156;23;19909;-82
2022/07/29 20:03:03;;;;;;;;;;;18.40;99.90;;;;;;6125999;23;20320;-82
2022/07/29 20:05:36;;;;;;;;;;;18.40;99.90;;;;;;6125168;23;19924;-85
2022/07/29 20:08:03;;;;;;;;;;;18.40;99.90;;;;;;6126077;23;19991;-82
2022/07/29 20:10:39;;;;;;;;;;;18.30;99.90;;;;;;6126450;23;19952;-83
2022/07/29 20:13:07;;;;;;;;;;;18.30;99.90;;;;;;6084345;23;19915;-82
2022/07/29 20:15:35;;;;;;;;;;;18.30;99.90;;;;;;6101939;23;19948;-83
2022/07/29 20:18:06;;;;;;;;;;;18.30;99.90;;;;;;6054065;23;20240;-81
2022/07/29 20:20:32;;;;;;;;;;;18.20;99.90;;;;;;6100698;23;19908;-82
2022/07/29 20:23:02;;;;;;;;;;;18.20;99.90;;;;;;6126612;23;19908;-81
2022/07/29 20:25:38;;;;;;;;;;;18.20;99.90;;;;;;6102305;23;19944;-83
2022/07/29 20:28:09;;;;;;;;;;;18.10;99.90;;;;;;6125370;23;19909;-80
2022/07/29 20:30:44;;;;;;;;;;;18.00;99.90;;;;;;6163476;23;20330;-82
2022/07/29 20:33:10;;;;;;;;;;;18.00;99.90;;;;;;6164408;23;19908;-83
2022/07/29 20:35:36;;;;;;;;;;;17.90;99.90;;;;;;6167904;23;19908;-81
2022/07/29 20:38:02;;;;;;;;;;;18.00;99.90;;;;;;6172953;23;20207;-80
2022/07/29 20:40:34;;;;;;;;;;;17.80;99.90;;;;;;6171662;23;20322;-83
2022/07/29 20:43:00;;;;;;;;;;;17.80;99.90;;;;;;6166274;23;19908;-80
2022/07/29 20:45:25;;;;;;;;;;;17.70;99.90;;;;;;6188044;23;20369;-83
2022/07/29 20:48:12;;;;;;;;;;;17.70;99.90;;;;;;6166284;23;20266;-83
2022/07/29 20:50:53;;;;;;;;;;;17.70;99.90;;;;;;6167057;23;19908;-80
2022/07/29 20:53:31;;;;;;;;;;;17.60;99.90;;;;;;6167426;23;19907;-80
2022/07/29 20:55:59;;;;;;;;;;;17.50;99.90;;;;;;6164095;23;19915;-83
2022/07/29 20:58:48;;;;;;;;;;;17.50;99.90;;;;;;6190824;23;19918;-81
2022/07/29 21:01:22;;;;;;;;;;;17.40;99.90;;;;;;6167540;23;19923;-81
2022/07/29 21:03:48;;;;;;;;;;;17.40;99.90;;;;;;6190769;23;19927;-81
2022/07/29 21:06:20;;;;;;;;;;;17.40;99.90;;;;;;6165209;23;19959;-83
2022/07/29 21:08:51;;;;;;;;;;;17.40;99.90;;;;;;6165854;23;20318;-83
2022/07/29 21:11:22;;;;;;;;;;;17.30;99.90;;;;;;6166027;23;19907;-85
2022/07/29 21:13:53;;;;;;;;;;;17.30;99.90;;;;;;6164767;23;19908;-82
2022/07/29 21:16:32;;;;;;;;;;;17.30;99.90;;;;;;6166425;23;19916;-83
2022/07/29 21:19:09;;;;;;;;;;;17.20;99.90;;;;;;6191167;23;20234;-80
2022/07/29 21:21:40;;;;;;;;;;;17.30;99.90;;;;;;6161865;23;19907;-85
2022/07/29 21:24:13;;;;;;;;;;;17.20;99.90;;;;;;6166299;23;19914;-82
2022/07/29 21:26:45;;;;;;;;;;;17.10;99.90;;;;;;6165241;23;20222;-85
2022/07/29 21:29:18;;;;;;;;;;;17.00;99.90;;;;;;6190694;23;20357;-82
2022/07/29 21:31:54;;;;;;;;;;;17.10;99.90;;;;;;6165997;23;19978;-83
2022/07/29 21:34:23;;;;;;;;;;;17.00;99.90;;;;;;6166335;23;19912;-81
2022/07/29 21:36:59;;;;;;;;;;;17.00;99.90;;;;;;6166231;23;20199;-86
2022/07/29 21:39:41;;;;;;;;;;;16.90;99.90;;;;;;6190315;23;19912;-85
2022/07/29 21:42:07;;;;;;;;;;;16.90;99.90;;;;;;6164801;23;19908;-81
2022/07/29 21:44:43;;;;;;;;;;;16.90;99.90;;;;;;6165691;23;19918;-82
2022/07/29 21:47:11;;;;;;;;;;;16.80;99.90;;;;;;6165908;23;20298;-84